sensor_id;sensor_type;location;lat;lon;timestamp;P1;durP1;ratioP1;P2;durP2;ratioP2
47365;SDS011;33105;47.964;7.982;2022-12-17T00:03:08;19.93;;;11.57;;
47365;SDS011;33105;47.964;7.982;2022-12-17T00:06:50;19.87;;;10.10;;
47365;SDS011;33105;47.964;7.982;2022-12-17T00:10:10;17.90;;;9.93;;
47365;SDS011;33105;47.964;7.982;2022-12-17T00:13:31;14.13;;;7.40;;
47365;SDS011;33105;47.964;7.982;2022-12-17T00:16:51;11.47;;;6.17;;
47365;SDS011;33105;47.964;7.982;2022-12-17T00:20:12;11.03;;;5.07;;
47365;SDS011;33105;47.964;7.982;2022-12-17T00:23:32;7.03;;;4.03;;
47365;SDS011;33105;47.964;7.982;2022-12-17T00:26:53;8.67;;;4.17;;
47365;SDS011;33105;47.964;7.982;2022-12-17T00:30:14;7.67;;;4.80;;
47365;SDS011;33105;47.964;7.982;2022-12-17T00:33:34;9.93;;;5.00;;
47365;SDS011;33105;47.964;7.982;2022-12-17T00:36:55;8.80;;;4.80;;
47365;SDS011;33105;47.964;7.982;2022-12-17T00:40:15;9.27;;;4.47;;
47365;SDS011;33105;47.964;7.982;2022-12-17T00:43:36;8.53;;;4.80;;
47365;SDS011;33105;47.964;7.982;2022-12-17T00:46:58;9.70;;;5.10;;
47365;SDS011;33105;47.964;7.982;2022-12-17T00:50:18;10.13;;;5.33;;
47365;SDS011;33105;47.964;7.982;2022-12-17T00:53:38;9.50;;;4.87;;
47365;SDS011;33105;47.964;7.982;2022-12-17T00:57:00;7.60;;;4.40;;
47365;SDS011;33105;47.964;7.982;2022-12-17T01:00:21;7.77;;;4.43;;
47365;SDS011;33105;47.964;7.982;2022-12-17T01:03:41;8.37;;;4.27;;
47365;SDS011;33105;47.964;7.982;2022-12-17T01:07:02;6.03;;;3.63;;
47365;SDS011;33105;47.964;7.982;2022-12-17T01:10:22;5.80;;;3.50;;
47365;SDS011;33105;47.964;7.982;2022-12-17T01:13:43;5.77;;;3.40;;
47365;SDS011;33105;47.964;7.982;2022-12-17T01:17:04;8.23;;;4.23;;
47365;SDS011;33105;47.964;7.982;2022-12-17T01:20:24;9.53;;;4.33;;
47365;SDS011;33105;47.964;7.982;2022-12-17T01:23:44;6.20;;;3.97;;
47365;SDS011;33105;47.964;7.982;2022-12-17T01:27:05;8.43;;;4.10;;
47365;SDS011;33105;47.964;7.982;2022-12-17T01:30:26;9.57;;;4.77;;
47365;SDS011;33105;47.964;7.982;2022-12-17T01:33:47;7.63;;;4.60;;
47365;SDS011;33105;47.964;7.982;2022-12-17T01:37:07;7.63;;;4.63;;
47365;SDS011;33105;47.964;7.982;2022-12-17T01:40:28;9.40;;;4.60;;
47365;SDS011;33105;47.964;7.982;2022-12-17T01:43:48;11.57;;;5.10;;
47365;SDS011;33105;47.964;7.982;2022-12-17T01:47:10;13.23;;;7.10;;
47365;SDS011;33105;47.964;7.982;2022-12-17T01:50:31;10.50;;;6.40;;
47365;SDS011;33105;47.964;7.982;2022-12-17T01:53:55;11.47;;;5.93;;
47365;SDS011;33105;47.964;7.982;2022-12-17T01:57:17;7.93;;;4.40;;
47365;SDS011;33105;47.964;7.982;2022-12-17T02:00:38;7.53;;;4.70;;
47365;SDS011;33105;47.964;7.982;2022-12-17T02:03:59;14.03;;;7.40;;
47365;SDS011;33105;47.964;7.982;2022-12-17T02:07:27;21.00;;;11.50;;
47365;SDS011;33105;47.964;7.982;2022-12-17T02:11:06;29.63;;;13.77;;
47365;SDS011;33105;47.964;7.982;2022-12-17T02:14:46;20.00;;;10.47;;
47365;SDS011;33105;47.964;7.982;2022-12-17T02:18:25;16.10;;;8.13;;
47365;SDS011;33105;47.964;7.982;2022-12-17T02:25:22;10.73;;;6.13;;
47365;SDS011;33105;47.964;7.982;2022-12-17T02:28:56;8.33;;;5.20;;
47365;SDS011;33105;47.964;7.982;2022-12-17T02:32:20;6.23;;;4.17;;
47365;SDS011;33105;47.964;7.982;2022-12-17T02:35:51;6.47;;;3.30;;
47365;SDS011;33105;47.964;7.982;2022-12-17T02:39:16;4.57;;;2.83;;
47365;SDS011;33105;47.964;7.982;2022-12-17T02:42:37;5.77;;;3.07;;
47365;SDS011;33105;47.964;7.982;2022-12-17T02:45:57;4.53;;;2.97;;
47365;SDS011;33105;47.964;7.982;2022-12-17T02:49:17;5.43;;;2.97;;
47365;SDS011;33105;47.964;7.982;2022-12-17T02:52:39;5.33;;;3.13;;
47365;SDS011;33105;47.964;7.982;2022-12-17T02:56:03;8.30;;;4.73;;
47365;SDS011;33105;47.964;7.982;2022-12-17T02:59:23;14.00;;;7.17;;
47365;SDS011;33105;47.964;7.982;2022-12-17T03:02:49;15.57;;;8.53;;
47365;SDS011;33105;47.964;7.982;2022-12-17T03:06:10;16.07;;;8.77;;
47365;SDS011;33105;47.964;7.982;2022-12-17T03:09:30;15.47;;;8.73;;
47365;SDS011;33105;47.964;7.982;2022-12-17T03:12:50;22.47;;;11.60;;
47365;SDS011;33105;47.964;7.982;2022-12-17T03:16:11;26.07;;;12.80;;
47365;SDS011;33105;47.964;7.982;2022-12-17T03:19:34;27.57;;;12.20;;
47365;SDS011;33105;47.964;7.982;2022-12-17T03:23:01;17.37;;;9.83;;
47365;SDS011;33105;47.964;7.982;2022-12-17T03:29:44;11.57;;;6.47;;
47365;SDS011;33105;47.964;7.982;2022-12-17T03:33:07;10.27;;;5.77;;
47365;SDS011;33105;47.964;7.982;2022-12-17T03:36:27;8.13;;;4.93;;
47365;SDS011;33105;47.964;7.982;2022-12-17T03:39:48;7.20;;;4.60;;
47365;SDS011;33105;47.964;7.982;2022-12-17T03:43:10;8.07;;;3.57;;
47365;SDS011;33105;47.964;7.982;2022-12-17T03:46:31;5.93;;;3.70;;
47365;SDS011;33105;47.964;7.982;2022-12-17T03:49:51;13.57;;;5.70;;
47365;SDS011;33105;47.964;7.982;2022-12-17T03:53:12;11.47;;;6.43;;
47365;SDS011;33105;47.964;7.982;2022-12-17T03:56:33;24.17;;;10.60;;
47365;SDS011;33105;47.964;7.982;2022-12-17T03:59:53;28.63;;;14.57;;
47365;SDS011;33105;47.964;7.982;2022-12-17T04:03:14;38.10;;;18.57;;
47365;SDS011;33105;47.964;7.982;2022-12-17T04:06:34;49.63;;;23.90;;
47365;SDS011;33105;47.964;7.982;2022-12-17T04:09:54;58.87;;;29.70;;
47365;SDS011;33105;47.964;7.982;2022-12-17T04:13:14;53.50;;;27.57;;
47365;SDS011;33105;47.964;7.982;2022-12-17T04:16:34;43.70;;;21.43;;
47365;SDS011;33105;47.964;7.982;2022-12-17T04:19:55;28.57;;;15.20;;
47365;SDS011;33105;47.964;7.982;2022-12-17T04:23:15;18.77;;;9.57;;
47365;SDS011;33105;47.964;7.982;2022-12-17T04:26:35;18.13;;;8.60;;
47365;SDS011;33105;47.964;7.982;2022-12-17T04:29:56;12.90;;;6.43;;
47365;SDS011;33105;47.964;7.982;2022-12-17T04:33:16;14.63;;;6.50;;
47365;SDS011;33105;47.964;7.982;2022-12-17T04:36:36;8.67;;;4.87;;
47365;SDS011;33105;47.964;7.982;2022-12-17T04:39:56;12.17;;;6.23;;
47365;SDS011;33105;47.964;7.982;2022-12-17T04:43:16;11.43;;;6.63;;
47365;SDS011;33105;47.964;7.982;2022-12-17T04:46:37;9.30;;;5.33;;
47365;SDS011;33105;47.964;7.982;2022-12-17T04:49:57;7.97;;;4.93;;
47365;SDS011;33105;47.964;7.982;2022-12-17T04:53:18;7.93;;;4.20;;
47365;SDS011;33105;47.964;7.982;2022-12-17T04:56:38;7.63;;;4.27;;
47365;SDS011;33105;47.964;7.982;2022-12-17T04:59:58;7.23;;;3.43;;
47365;SDS011;33105;47.964;7.982;2022-12-17T05:03:18;5.20;;;3.53;;
47365;SDS011;33105;47.964;7.982;2022-12-17T05:06:40;8.97;;;5.23;;
47365;SDS011;33105;47.964;7.982;2022-12-17T05:10:00;8.80;;;5.07;;
47365;SDS011;33105;47.964;7.982;2022-12-17T05:13:20;9.10;;;4.57;;
47365;SDS011;33105;47.964;7.982;2022-12-17T05:16:40;9.50;;;4.30;;
47365;SDS011;33105;47.964;7.982;2022-12-17T05:20:00;7.90;;;4.70;;
47365;SDS011;33105;47.964;7.982;2022-12-17T05:23:21;16.20;;;8.27;;
47365;SDS011;33105;47.964;7.982;2022-12-17T05:26:41;15.33;;;7.53;;
47365;SDS011;33105;47.964;7.982;2022-12-17T05:30:02;12.03;;;6.00;;
47365;SDS011;33105;47.964;7.982;2022-12-17T05:33:24;9.83;;;5.70;;
47365;SDS011;33105;47.964;7.982;2022-12-17T05:36:44;12.13;;;7.07;;
47365;SDS011;33105;47.964;7.982;2022-12-17T05:40:04;10.27;;;5.43;;
47365;SDS011;33105;47.964;7.982;2022-12-17T05:43:26;9.53;;;4.73;;
47365;SDS011;33105;47.964;7.982;2022-12-17T05:47:07;7.23;;;4.03;;
47365;SDS011;33105;47.964;7.982;2022-12-17T05:50:29;6.27;;;3.30;;
47365;SDS011;33105;47.964;7.982;2022-12-17T05:53:49;6.17;;;3.33;;
47365;SDS011;33105;47.964;7.982;2022-12-17T05:57:09;5.63;;;3.23;;
47365;SDS011;33105;47.964;7.982;2022-12-17T06:00:30;4.03;;;3.10;;
47365;SDS011;33105;47.964;7.982;2022-12-17T06:03:50;5.93;;;3.77;;
47365;SDS011;33105;47.964;7.982;2022-12-17T06:07:10;7.40;;;3.57;;
47365;SDS011;33105;47.964;7.982;2022-12-17T06:10:30;8.20;;;4.00;;
47365;SDS011;33105;47.964;7.982;2022-12-17T06:13:50;6.10;;;3.50;;
47365;SDS011;33105;47.964;7.982;2022-12-17T06:17:10;5.77;;;3.60;;
47365;SDS011;33105;47.964;7.982;2022-12-17T06:20:30;7.90;;;3.27;;
47365;SDS011;33105;47.964;7.982;2022-12-17T06:23:50;8.70;;;4.10;;
47365;SDS011;33105;47.964;7.982;2022-12-17T06:27:10;13.03;;;5.20;;
47365;SDS011;33105;47.964;7.982;2022-12-17T06:30:30;12.93;;;5.30;;
47365;SDS011;33105;47.964;7.982;2022-12-17T06:33:51;14.23;;;6.27;;
47365;SDS011;33105;47.964;7.982;2022-12-17T06:37:11;14.13;;;6.03;;
47365;SDS011;33105;47.964;7.982;2022-12-17T06:40:32;13.57;;;6.20;;
47365;SDS011;33105;47.964;7.982;2022-12-17T06:43:52;11.57;;;5.43;;
47365;SDS011;33105;47.964;7.982;2022-12-17T06:47:12;16.93;;;7.00;;
47365;SDS011;33105;47.964;7.982;2022-12-17T06:50:32;38.13;;;15.03;;
47365;SDS011;33105;47.964;7.982;2022-12-17T06:53:53;34.53;;;14.43;;
47365;SDS011;33105;47.964;7.982;2022-12-17T06:57:13;33.17;;;13.90;;
47365;SDS011;33105;47.964;7.982;2022-12-17T07:00:33;23.33;;;10.17;;
47365;SDS011;33105;47.964;7.982;2022-12-17T07:03:55;30.80;;;12.33;;
47365;SDS011;33105;47.964;7.982;2022-12-17T07:07:15;32.87;;;12.50;;
47365;SDS011;33105;47.964;7.982;2022-12-17T07:10:37;29.00;;;11.20;;
47365;SDS011;33105;47.964;7.982;2022-12-17T07:13:57;16.53;;;7.30;;
47365;SDS011;33105;47.964;7.982;2022-12-17T07:17:18;14.13;;;7.07;;
47365;SDS011;33105;47.964;7.982;2022-12-17T07:23:57;11.17;;;4.73;;
47365;SDS011;33105;47.964;7.982;2022-12-17T07:27:17;7.53;;;4.27;;
47365;SDS011;33105;47.964;7.982;2022-12-17T07:30:37;13.27;;;6.73;;
47365;SDS011;33105;47.964;7.982;2022-12-17T07:33:57;14.07;;;5.27;;
47365;SDS011;33105;47.964;7.982;2022-12-17T07:37:17;6.13;;;3.63;;
47365;SDS011;33105;47.964;7.982;2022-12-17T07:40:38;10.30;;;5.67;;
47365;SDS011;33105;47.964;7.982;2022-12-17T07:43:58;8.47;;;4.23;;
47365;SDS011;33105;47.964;7.982;2022-12-17T07:47:18;7.53;;;3.90;;
47365;SDS011;33105;47.964;7.982;2022-12-17T07:50:38;10.20;;;4.63;;
47365;SDS011;33105;47.964;7.982;2022-12-17T07:53:58;9.17;;;4.20;;
47365;SDS011;33105;47.964;7.982;2022-12-17T07:57:18;8.07;;;4.53;;
47365;SDS011;33105;47.964;7.982;2022-12-17T08:00:38;7.13;;;3.97;;
47365;SDS011;33105;47.964;7.982;2022-12-17T08:03:58;8.40;;;4.57;;
47365;SDS011;33105;47.964;7.982;2022-12-17T08:07:18;12.30;;;6.20;;
47365;SDS011;33105;47.964;7.982;2022-12-17T08:10:40;11.67;;;6.07;;
47365;SDS011;33105;47.964;7.982;2022-12-17T08:13:59;11.33;;;5.67;;
47365;SDS011;33105;47.964;7.982;2022-12-17T08:17:19;9.97;;;5.60;;
47365;SDS011;33105;47.964;7.982;2022-12-17T08:20:39;12.23;;;5.83;;
47365;SDS011;33105;47.964;7.982;2022-12-17T08:23:59;18.73;;;8.27;;
47365;SDS011;33105;47.964;7.982;2022-12-17T08:27:19;14.97;;;7.03;;
47365;SDS011;33105;47.964;7.982;2022-12-17T08:30:39;15.00;;;7.70;;
47365;SDS011;33105;47.964;7.982;2022-12-17T08:34:00;19.07;;;8.83;;
47365;SDS011;33105;47.964;7.982;2022-12-17T08:37:20;18.23;;;8.57;;
47365;SDS011;33105;47.964;7.982;2022-12-17T08:40:42;19.63;;;9.30;;
47365;SDS011;33105;47.964;7.982;2022-12-17T08:44:02;18.87;;;9.17;;
47365;SDS011;33105;47.964;7.982;2022-12-17T08:47:22;20.70;;;9.90;;
47365;SDS011;33105;47.964;7.982;2022-12-17T08:50:42;30.80;;;14.40;;
47365;SDS011;33105;47.964;7.982;2022-12-17T08:54:02;52.90;;;21.23;;
47365;SDS011;33105;47.964;7.982;2022-12-17T08:57:22;60.30;;;24.63;;
47365;SDS011;33105;47.964;7.982;2022-12-17T09:00:42;74.10;;;27.90;;
47365;SDS011;33105;47.964;7.982;2022-12-17T09:04:03;78.50;;;30.70;;
47365;SDS011;33105;47.964;7.982;2022-12-17T09:07:24;45.77;;;18.90;;
47365;SDS011;33105;47.964;7.982;2022-12-17T09:10:45;40.03;;;17.53;;
47365;SDS011;33105;47.964;7.982;2022-12-17T09:14:05;21.40;;;9.63;;
47365;SDS011;33105;47.964;7.982;2022-12-17T09:17:25;14.43;;;6.90;;
47365;SDS011;33105;47.964;7.982;2022-12-17T09:20:50;14.57;;;7.00;;
47365;SDS011;33105;47.964;7.982;2022-12-17T09:24:11;9.87;;;5.80;;
47365;SDS011;33105;47.964;7.982;2022-12-17T09:27:31;15.10;;;8.57;;
47365;SDS011;33105;47.964;7.982;2022-12-17T09:30:51;57.43;;;22.80;;
47365;SDS011;33105;47.964;7.982;2022-12-17T09:34:11;80.20;;;29.17;;
47365;SDS011;33105;47.964;7.982;2022-12-17T09:37:32;40.87;;;16.30;;
47365;SDS011;33105;47.964;7.982;2022-12-17T09:40:52;17.30;;;8.43;;
47365;SDS011;33105;47.964;7.982;2022-12-17T09:47:53;40.80;;;17.10;;
47365;SDS011;33105;47.964;7.982;2022-12-17T09:51:22;29.23;;;12.87;;
47365;SDS011;33105;47.964;7.982;2022-12-17T09:54:45;23.07;;;12.00;;
47365;SDS011;33105;47.964;7.982;2022-12-17T09:58:24;24.27;;;12.73;;
47365;SDS011;33105;47.964;7.982;2022-12-17T10:01:45;21.67;;;9.70;;
47365;SDS011;33105;47.964;7.982;2022-12-17T10:05:06;18.90;;;9.13;;
47365;SDS011;33105;47.964;7.982;2022-12-17T10:08:34;20.00;;;10.57;;
47365;SDS011;33105;47.964;7.982;2022-12-17T10:11:56;24.80;;;11.67;;
47365;SDS011;33105;47.964;7.982;2022-12-17T10:15:21;22.80;;;10.07;;
47365;SDS011;33105;47.964;7.982;2022-12-17T10:18:41;20.73;;;9.87;;
47365;SDS011;33105;47.964;7.982;2022-12-17T10:22:10;23.77;;;12.27;;
47365;SDS011;33105;47.964;7.982;2022-12-17T10:28:59;27.97;;;12.57;;
47365;SDS011;33105;47.964;7.982;2022-12-17T10:35:43;34.87;;;16.33;;
47365;SDS011;33105;47.964;7.982;2022-12-17T10:39:03;29.33;;;13.57;;
47365;SDS011;33105;47.964;7.982;2022-12-17T10:45:55;21.13;;;11.77;;
47365;SDS011;33105;47.964;7.982;2022-12-17T10:52:45;20.77;;;11.87;;
47365;SDS011;33105;47.964;7.982;2022-12-17T10:56:06;33.93;;;15.17;;
47365;SDS011;33105;47.964;7.982;2022-12-17T10:59:38;24.17;;;13.97;;
47365;SDS011;33105;47.964;7.982;2022-12-17T11:03:19;28.83;;;15.17;;
47365;SDS011;33105;47.964;7.982;2022-12-17T11:06:52;41.13;;;19.30;;
47365;SDS011;33105;47.964;7.982;2022-12-17T11:10:16;51.07;;;24.70;;
47365;SDS011;33105;47.964;7.982;2022-12-17T11:13:40;48.60;;;22.40;;
47365;SDS011;33105;47.964;7.982;2022-12-17T11:17:04;50.30;;;23.07;;
47365;SDS011;33105;47.964;7.982;2022-12-17T11:20:43;46.60;;;22.50;;
47365;SDS011;33105;47.964;7.982;2022-12-17T11:24:20;53.07;;;21.50;;
47365;SDS011;33105;47.964;7.982;2022-12-17T11:27:45;50.63;;;23.57;;
47365;SDS011;33105;47.964;7.982;2022-12-17T11:31:24;55.13;;;25.60;;
47365;SDS011;33105;47.964;7.982;2022-12-17T11:38:36;55.00;;;26.80;;
47365;SDS011;33105;47.964;7.982;2022-12-17T11:56:42;68.10;;;23.07;;
47365;SDS011;33105;47.964;7.982;2022-12-17T12:03:43;59.33;;;27.07;;
47365;SDS011;33105;47.964;7.982;2022-12-17T12:07:34;55.90;;;23.45;;
47365;SDS011;33105;47.964;7.982;2022-12-17T12:11:25;57.87;;;25.30;;
47365;SDS011;33105;47.964;7.982;2022-12-17T12:15:17;56.90;;;25.60;;
47365;SDS011;33105;47.964;7.982;2022-12-17T12:25:56;52.53;;;27.93;;
47365;SDS011;33105;47.964;7.982;2022-12-17T12:32:56;50.03;;;24.33;;
47365;SDS011;33105;47.964;7.982;2022-12-17T12:36:19;46.80;;;22.70;;
47365;SDS011;33105;47.964;7.982;2022-12-17T12:39:45;50.50;;;24.43;;
47365;SDS011;33105;47.964;7.982;2022-12-17T12:43:13;50.97;;;25.03;;
47365;SDS011;33105;47.964;7.982;2022-12-17T12:46:57;47.30;;;23.00;;
47365;SDS011;33105;47.964;7.982;2022-12-17T12:50:27;52.80;;;24.13;;
47365;SDS011;33105;47.964;7.982;2022-12-17T12:54:00;56.57;;;25.80;;
47365;SDS011;33105;47.964;7.982;2022-12-17T12:57:59;50.37;;;25.73;;
47365;SDS011;33105;47.964;7.982;2022-12-17T13:01:30;51.80;;;26.90;;
47365;SDS011;33105;47.964;7.982;2022-12-17T13:04:52;57.80;;;28.23;;
47365;SDS011;33105;47.964;7.982;2022-12-17T13:08:21;53.17;;;26.37;;
47365;SDS011;33105;47.964;7.982;2022-12-17T13:11:28;53.97;;;24.30;;
47365;SDS011;33105;47.964;7.982;2022-12-17T13:14:57;49.53;;;26.30;;
47365;SDS011;33105;47.964;7.982;2022-12-17T13:18:14;49.00;;;24.77;;
47365;SDS011;33105;47.964;7.982;2022-12-17T13:24:31;53.27;;;25.57;;
47365;SDS011;33105;47.964;7.982;2022-12-17T13:30:35;51.03;;;24.07;;
47365;SDS011;33105;47.964;7.982;2022-12-17T13:33:42;50.80;;;22.97;;
47365;SDS011;33105;47.964;7.982;2022-12-17T13:43:26;147.97;;;27.60;;
47365;SDS011;33105;47.964;7.982;2022-12-17T13:46:39;60.70;;;27.17;;
47365;SDS011;33105;47.964;7.982;2022-12-17T13:49:48;54.78;;;26.70;;
47365;SDS011;33105;47.964;7.982;2022-12-17T13:52:51;53.57;;;25.30;;
47365;SDS011;33105;47.964;7.982;2022-12-17T13:55:56;52.00;;;23.33;;
47365;SDS011;33105;47.964;7.982;2022-12-17T13:58:58;75.33;;;32.50;;
47365;SDS011;33105;47.964;7.982;2022-12-17T14:02:02;71.70;;;29.10;;
47365;SDS011;33105;47.964;7.982;2022-12-17T14:05:05;85.70;;;28.50;;
47365;SDS011;33105;47.964;7.982;2022-12-17T14:08:11;58.47;;;25.23;;
47365;SDS011;33105;47.964;7.982;2022-12-17T14:11:16;62.40;;;28.80;;
47365;SDS011;33105;47.964;7.982;2022-12-17T14:14:41;52.40;;;23.80;;
47365;SDS011;33105;47.964;7.982;2022-12-17T14:17:46;54.30;;;26.03;;
47365;SDS011;33105;47.964;7.982;2022-12-17T14:20:51;54.17;;;25.70;;
47365;SDS011;33105;47.964;7.982;2022-12-17T14:23:55;53.50;;;25.03;;
47365;SDS011;33105;47.964;7.982;2022-12-17T14:26:59;52.93;;;24.40;;
47365;SDS011;33105;47.964;7.982;2022-12-17T14:30:02;49.10;;;24.70;;
47365;SDS011;33105;47.964;7.982;2022-12-17T14:33:24;51.83;;;24.52;;
47365;SDS011;33105;47.964;7.982;2022-12-17T14:36:33;132.63;;;49.17;;
47365;SDS011;33105;47.964;7.982;2022-12-17T14:39:36;91.80;;;36.53;;
47365;SDS011;33105;47.964;7.982;2022-12-17T14:42:45;66.27;;;27.90;;
47365;SDS011;33105;47.964;7.982;2022-12-17T14:45:55;84.47;;;32.47;;
47365;SDS011;33105;47.964;7.982;2022-12-17T14:49:19;75.77;;;32.83;;
47365;SDS011;33105;47.964;7.982;2022-12-17T14:52:42;75.83;;;34.60;;
47365;SDS011;33105;47.964;7.982;2022-12-17T14:55:51;57.07;;;26.93;;
47365;SDS011;33105;47.964;7.982;2022-12-17T14:58:53;57.00;;;26.00;;
47365;SDS011;33105;47.964;7.982;2022-12-17T15:01:54;51.93;;;24.03;;
47365;SDS011;33105;47.964;7.982;2022-12-17T15:05:00;74.40;;;26.23;;
47365;SDS011;33105;47.964;7.982;2022-12-17T15:08:03;53.53;;;25.53;;
47365;SDS011;33105;47.964;7.982;2022-12-17T15:11:05;55.20;;;25.20;;
47365;SDS011;33105;47.964;7.982;2022-12-17T15:14:07;56.47;;;24.80;;
47365;SDS011;33105;47.964;7.982;2022-12-17T15:17:08;48.07;;;24.33;;
47365;SDS011;33105;47.964;7.982;2022-12-17T15:20:16;52.67;;;26.50;;
47365;SDS011;33105;47.964;7.982;2022-12-17T15:23:21;55.50;;;25.03;;
47365;SDS011;33105;47.964;7.982;2022-12-17T15:26:24;52.67;;;23.47;;
47365;SDS011;33105;47.964;7.982;2022-12-17T15:29:25;48.37;;;24.07;;
47365;SDS011;33105;47.964;7.982;2022-12-17T15:32:30;54.63;;;24.80;;
47365;SDS011;33105;47.964;7.982;2022-12-17T15:35:31;49.63;;;25.07;;
47365;SDS011;33105;47.964;7.982;2022-12-17T15:38:33;52.50;;;25.90;;
47365;SDS011;33105;47.964;7.982;2022-12-17T15:41:35;52.60;;;25.10;;
47365;SDS011;33105;47.964;7.982;2022-12-17T15:44:55;51.43;;;25.87;;
47365;SDS011;33105;47.964;7.982;2022-12-17T15:47:57;58.60;;;27.30;;
47365;SDS011;33105;47.964;7.982;2022-12-17T15:50:58;51.83;;;25.33;;
47365;SDS011;33105;47.964;7.982;2022-12-17T15:54:00;52.20;;;24.27;;
47365;SDS011;33105;47.964;7.982;2022-12-17T15:57:02;64.67;;;27.20;;
47365;SDS011;33105;47.964;7.982;2022-12-17T16:00:04;51.77;;;25.37;;
47365;SDS011;33105;47.964;7.982;2022-12-17T16:03:06;54.17;;;24.27;;
47365;SDS011;33105;47.964;7.982;2022-12-17T16:06:08;58.97;;;26.83;;
47365;SDS011;33105;47.964;7.982;2022-12-17T16:09:09;56.97;;;28.10;;
47365;SDS011;33105;47.964;7.982;2022-12-17T16:12:12;58.53;;;28.70;;
47365;SDS011;33105;47.964;7.982;2022-12-17T16:15:13;54.73;;;26.40;;
47365;SDS011;33105;47.964;7.982;2022-12-17T16:18:14;61.70;;;27.73;;
47365;SDS011;33105;47.964;7.982;2022-12-17T16:21:17;51.73;;;25.37;;
47365;SDS011;33105;47.964;7.982;2022-12-17T16:24:19;55.87;;;25.17;;
47365;SDS011;33105;47.964;7.982;2022-12-17T16:27:20;55.07;;;25.57;;
47365;SDS011;33105;47.964;7.982;2022-12-17T16:30:21;54.80;;;25.97;;
47365;SDS011;33105;47.964;7.982;2022-12-17T16:33:23;56.27;;;26.30;;
47365;SDS011;33105;47.964;7.982;2022-12-17T16:36:24;57.03;;;26.57;;
47365;SDS011;33105;47.964;7.982;2022-12-17T16:39:26;55.47;;;25.47;;
47365;SDS011;33105;47.964;7.982;2022-12-17T16:42:29;50.77;;;25.47;;
47365;SDS011;33105;47.964;7.982;2022-12-17T16:45:30;54.23;;;25.97;;
47365;SDS011;33105;47.964;7.982;2022-12-17T16:48:35;56.83;;;26.03;;
47365;SDS011;33105;47.964;7.982;2022-12-17T16:51:39;56.50;;;26.03;;
47365;SDS011;33105;47.964;7.982;2022-12-17T16:54:42;52.57;;;24.47;;
47365;SDS011;33105;47.964;7.982;2022-12-17T16:57:44;58.30;;;26.77;;
47365;SDS011;33105;47.964;7.982;2022-12-17T17:00:52;56.03;;;27.47;;
47365;SDS011;33105;47.964;7.982;2022-12-17T17:03:54;65.83;;;28.93;;
47365;SDS011;33105;47.964;7.982;2022-12-17T17:06:56;60.20;;;27.00;;
47365;SDS011;33105;47.964;7.982;2022-12-17T17:09:58;56.83;;;26.33;;
47365;SDS011;33105;47.964;7.982;2022-12-17T17:13:00;58.20;;;25.60;;
47365;SDS011;33105;47.964;7.982;2022-12-17T17:16:01;60.93;;;25.73;;
47365;SDS011;33105;47.964;7.982;2022-12-17T17:19:03;47.00;;;23.47;;
47365;SDS011;33105;47.964;7.982;2022-12-17T17:22:07;49.50;;;23.60;;
47365;SDS011;33105;47.964;7.982;2022-12-17T17:25:08;54.30;;;26.47;;
47365;SDS011;33105;47.964;7.982;2022-12-17T17:28:10;47.80;;;23.50;;
47365;SDS011;33105;47.964;7.982;2022-12-17T17:31:13;63.67;;;26.10;;
47365;SDS011;33105;47.964;7.982;2022-12-17T17:34:16;51.83;;;23.90;;
47365;SDS011;33105;47.964;7.982;2022-12-17T17:37:18;49.47;;;23.10;;
47365;SDS011;33105;47.964;7.982;2022-12-17T17:40:19;55.80;;;26.70;;
47365;SDS011;33105;47.964;7.982;2022-12-17T17:43:21;62.13;;;28.13;;
47365;SDS011;33105;47.964;7.982;2022-12-17T17:46:23;56.00;;;25.90;;
47365;SDS011;33105;47.964;7.982;2022-12-17T17:49:25;51.00;;;25.33;;
47365;SDS011;33105;47.964;7.982;2022-12-17T17:52:27;54.50;;;25.43;;
47365;SDS011;33105;47.964;7.982;2022-12-17T17:55:28;53.77;;;26.50;;
47365;SDS011;33105;47.964;7.982;2022-12-17T17:58:30;69.57;;;27.80;;
47365;SDS011;33105;47.964;7.982;2022-12-17T18:01:33;60.60;;;27.60;;
47365;SDS011;33105;47.964;7.982;2022-12-17T18:04:37;49.87;;;23.13;;
47365;SDS011;33105;47.964;7.982;2022-12-17T18:07:40;52.33;;;24.27;;
47365;SDS011;33105;47.964;7.982;2022-12-17T18:10:42;47.83;;;23.77;;
47365;SDS011;33105;47.964;7.982;2022-12-17T18:13:55;56.00;;;25.13;;
47365;SDS011;33105;47.964;7.982;2022-12-17T18:16:57;56.00;;;26.13;;
47365;SDS011;33105;47.964;7.982;2022-12-17T18:19:59;52.37;;;24.70;;
47365;SDS011;33105;47.964;7.982;2022-12-17T18:23:03;52.43;;;24.50;;
47365;SDS011;33105;47.964;7.982;2022-12-17T18:32:17;58.17;;;27.90;;
47365;SDS011;33105;47.964;7.982;2022-12-17T18:35:20;57.27;;;28.23;;
47365;SDS011;33105;47.964;7.982;2022-12-17T18:38:22;55.47;;;25.20;;
47365;SDS011;33105;47.964;7.982;2022-12-17T18:41:24;55.63;;;25.63;;
47365;SDS011;33105;47.964;7.982;2022-12-17T18:44:45;65.70;;;27.47;;
47365;SDS011;33105;47.964;7.982;2022-12-17T18:47:47;65.70;;;29.97;;
47365;SDS011;33105;47.964;7.982;2022-12-17T18:50:50;85.87;;;29.67;;
47365;SDS011;33105;47.964;7.982;2022-12-17T18:53:56;60.17;;;27.27;;
47365;SDS011;33105;47.964;7.982;2022-12-17T18:56:59;60.67;;;27.07;;
47365;SDS011;33105;47.964;7.982;2022-12-17T19:00:01;110.30;;;29.03;;
47365;SDS011;33105;47.964;7.982;2022-12-17T19:03:03;62.70;;;26.13;;
47365;SDS011;33105;47.964;7.982;2022-12-17T19:06:07;63.47;;;26.10;;
47365;SDS011;33105;47.964;7.982;2022-12-17T19:09:15;61.37;;;28.20;;
47365;SDS011;33105;47.964;7.982;2022-12-17T19:12:19;69.97;;;29.40;;
47365;SDS011;33105;47.964;7.982;2022-12-17T19:15:21;61.50;;;27.20;;
47365;SDS011;33105;47.964;7.982;2022-12-17T19:18:23;61.23;;;27.73;;
47365;SDS011;33105;47.964;7.982;2022-12-17T19:21:25;73.07;;;29.07;;
47365;SDS011;33105;47.964;7.982;2022-12-17T19:24:27;65.87;;;27.60;;
47365;SDS011;33105;47.964;7.982;2022-12-17T19:27:32;61.27;;;27.57;;
47365;SDS011;33105;47.964;7.982;2022-12-17T19:30:34;61.57;;;26.23;;
47365;SDS011;33105;47.964;7.982;2022-12-17T19:33:36;90.60;;;27.43;;
47365;SDS011;33105;47.964;7.982;2022-12-17T19:36:39;57.67;;;25.93;;
47365;SDS011;33105;47.964;7.982;2022-12-17T19:39:41;67.60;;;28.07;;
47365;SDS011;33105;47.964;7.982;2022-12-17T19:42:43;63.37;;;32.43;;
47365;SDS011;33105;47.964;7.982;2022-12-17T19:45:44;67.10;;;27.83;;
47365;SDS011;33105;47.964;7.982;2022-12-17T19:48:46;72.07;;;27.13;;
47365;SDS011;33105;47.964;7.982;2022-12-17T19:51:49;61.33;;;27.23;;
47365;SDS011;33105;47.964;7.982;2022-12-17T19:54:51;63.57;;;27.70;;
47365;SDS011;33105;47.964;7.982;2022-12-17T19:57:53;52.53;;;25.07;;
47365;SDS011;33105;47.964;7.982;2022-12-17T20:00:54;56.57;;;24.17;;
47365;SDS011;33105;47.964;7.982;2022-12-17T20:03:56;53.17;;;23.37;;
47365;SDS011;33105;47.964;7.982;2022-12-17T20:06:58;59.13;;;24.37;;
47365;SDS011;33105;47.964;7.982;2022-12-17T20:10:00;57.60;;;25.53;;
47365;SDS011;33105;47.964;7.982;2022-12-17T20:13:03;55.20;;;23.53;;
47365;SDS011;33105;47.964;7.982;2022-12-17T20:16:05;47.47;;;22.63;;
47365;SDS011;33105;47.964;7.982;2022-12-17T20:19:12;44.67;;;21.57;;
47365;SDS011;33105;47.964;7.982;2022-12-17T20:22:17;48.63;;;23.25;;
47365;SDS011;33105;47.964;7.982;2022-12-17T20:25:18;52.17;;;23.57;;
47365;SDS011;33105;47.964;7.982;2022-12-17T20:28:20;59.43;;;25.13;;
47365;SDS011;33105;47.964;7.982;2022-12-17T20:31:21;51.33;;;23.27;;
47365;SDS011;33105;47.964;7.982;2022-12-17T20:34:24;54.03;;;22.90;;